createdAt,value
2022-08-21T00:01:51.490Z,87.18
2022-08-21T00:04:20.862Z,87.41
2022-08-21T00:06:48.771Z,87.46
2022-08-21T00:09:15.396Z,87.44
2022-08-21T00:11:42.033Z,87.41
2022-08-21T00:14:09.580Z,87.16
2022-08-21T00:16:36.252Z,87.37
2022-08-21T00:19:03.011Z,88.09
2022-08-21T00:21:29.812Z,87.76
2022-08-21T00:23:56.442Z,87.79
2022-08-21T00:26:23.289Z,88.06
2022-08-21T00:28:50.122Z,87.80
2022-08-21T00:31:24.958Z,87.97
2022-08-21T00:33:51.621Z,87.68
2022-08-21T00:36:18.293Z,87.66
2022-08-21T00:38:44.972Z,87.74
2022-08-21T00:41:36.707Z,87.44
2022-08-21T00:43:58.514Z,87.41
2022-08-21T00:46:28.214Z,87.40
2022-08-21T00:48:58.785Z,87.80
2022-08-21T00:51:29.665Z,87.56
2022-08-21T00:53:58.484Z,87.50
2022-08-21T00:56:25.875Z,87.37
2022-08-21T00:58:54.838Z,87.34
2022-08-21T01:01:22.116Z,87.57
2022-08-21T01:03:49.050Z,87.40
2022-08-21T01:06:16.859Z,88.32
2022-08-21T01:08:46.643Z,88.57
2022-08-21T01:11:14.832Z,88.99
2022-08-21T01:13:47.142Z,88.67
2022-08-21T01:16:16.275Z,88.57
2022-08-21T01:18:42.924Z,88.45
2022-08-21T01:21:28.391Z,88.62
2022-08-21T01:23:55.882Z,88.52
2022-08-21T01:26:34.055Z,88.73
2022-08-21T01:29:13.893Z,88.82
2022-08-21T01:31:40.576Z,88.85
2022-08-21T01:34:07.395Z,89.19
2022-08-21T01:36:34.831Z,89.47
2022-08-21T01:39:01.916Z,89.57
2022-08-21T01:41:28.509Z,89.60
2022-08-21T02:08:25.098Z,92.99
2022-08-21T02:10:52.169Z,92.37
2022-08-21T02:13:18.861Z,92.32
2022-08-21T02:15:45.493Z,91.80
2022-08-21T02:18:12.460Z,86.69
2022-08-21T02:20:42.919Z,86.74
2022-08-21T02:23:11.077Z,86.77
2022-08-21T02:25:37.836Z,86.26
2022-08-21T02:28:06.585Z,83.88
2022-08-21T02:30:35.383Z,82.68
2022-08-21T02:33:02.380Z,83.05
2022-08-21T02:35:29.038Z,83.49
2022-08-21T02:38:03.153Z,83.49
2022-08-21T02:40:31.795Z,84.16
2022-08-21T02:42:59.519Z,84.03
2022-08-21T02:45:26.482Z,84.22
2022-08-21T02:47:56.603Z,84.66
2022-08-21T02:50:26.057Z,84.83
2022-08-21T02:52:55.069Z,84.90
2022-08-21T02:55:23.320Z,85.49
2022-08-21T02:57:50.192Z,85.95
2022-08-21T03:00:16.997Z,86.24
2022-08-21T03:02:43.747Z,86.38
2022-08-21T03:05:11.007Z,86.62
2022-08-21T03:07:38.472Z,86.47
2022-08-21T03:10:05.849Z,86.17
2022-08-21T03:12:32.534Z,85.95
2022-08-21T03:14:59.231Z,86.11
2022-08-21T03:17:29.555Z,86.18
2022-08-21T03:19:57.749Z,86.16
2022-08-21T03:22:24.386Z,86.23
2022-08-21T03:24:51.439Z,86.43
2022-08-21T03:27:18.518Z,86.43
2022-08-21T03:29:46.767Z,86.67
2022-08-21T03:32:13.416Z,86.89
2022-08-21T03:34:40.193Z,87.06
2022-08-21T03:37:07.531Z,87.20
2022-08-21T03:39:34.325Z,87.68
2022-08-21T03:42:01.001Z,87.54
2022-08-21T03:44:30.211Z,87.86
2022-08-21T03:46:57.303Z,88.08
2022-08-21T03:49:25.295Z,88.38
2022-08-21T03:51:58.298Z,88.44
2022-08-21T03:54:26.529Z,88.76
2022-08-21T03:56:55.545Z,89.03
2022-08-21T03:59:22.173Z,89.08
2022-08-21T04:01:56.634Z,88.82
2022-08-21T04:04:23.815Z,89.14
2022-08-21T04:06:50.876Z,89.29
2022-08-21T04:09:18.430Z,89.14
2022-08-21T04:11:46.420Z,89.04
2022-08-21T04:14:13.209Z,89.10
2022-08-21T04:16:40.009Z,89.17
2022-08-21T04:19:06.605Z,89.42
2022-08-21T04:21:33.306Z,89.05
2022-08-21T04:24:00.399Z,88.96
2022-08-21T04:26:27.410Z,88.54
2022-08-21T04:29:01.538Z,88.60
2022-08-21T04:31:29.591Z,88.01
2022-08-21T04:33:57.817Z,88.22
2022-08-21T04:36:24.833Z,88.63
2022-08-21T04:38:52.664Z,88.59
2022-08-21T04:41:27.875Z,88.41
2022-08-21T04:43:56.269Z,88.37
2022-08-21T04:47:06.871Z,88.19
2022-08-21T04:49:34.100Z,87.72
2022-08-21T04:52:00.707Z,87.73
2022-08-21T04:54:27.371Z,87.61
2022-08-21T04:56:56.310Z,87.47
2022-08-21T04:59:25.672Z,87.24
2022-08-21T05:01:52.675Z,87.23
2022-08-21T05:04:20.591Z,87.20
2022-08-21T05:06:48.021Z,86.76
2022-08-21T05:09:16.452Z,86.76
2022-08-21T05:11:43.787Z,86.80
2022-08-21T05:14:12.497Z,86.77
2022-08-21T05:16:39.468Z,86.62
2022-08-21T05:19:06.957Z,86.67
2022-08-21T05:21:37.178Z,86.94
2022-08-21T05:24:03.947Z,86.56
2022-08-21T05:26:30.866Z,86.89
2022-08-21T05:28:57.906Z,86.65
2022-08-21T05:31:24.513Z,86.64
2022-08-21T05:33:52.095Z,86.45
2022-08-21T05:36:19.394Z,86.67
2022-08-21T05:38:46.011Z,86.69
2022-08-21T05:41:12.842Z,87.12
2022-08-21T05:43:39.572Z,86.91
2022-08-21T05:46:06.929Z,86.54
2022-08-21T05:48:33.777Z,86.62
2022-08-21T05:51:14.273Z,86.56
2022-08-21T05:53:43.124Z,86.53
2022-08-21T05:56:10.356Z,86.67
2022-08-21T05:58:37.166Z,86.93
2022-08-21T06:01:04.025Z,87.06
2022-08-21T06:03:32.562Z,87.20
2022-08-21T06:05:59.529Z,86.94
2022-08-21T06:08:26.249Z,87.02
2022-08-21T06:10:53.225Z,86.95
2022-08-21T06:13:20.199Z,86.68
2022-08-21T06:15:47.055Z,86.78
2022-08-21T06:18:13.693Z,86.69
2022-08-21T06:20:40.505Z,86.56
2022-08-21T06:23:07.231Z,86.34
2022-08-21T06:25:33.845Z,86.40
2022-08-21T06:28:10.891Z,86.47
2022-08-21T06:30:38.129Z,86.38
2022-08-21T06:33:04.843Z,86.22
2022-08-21T06:35:31.493Z,86.36
2022-08-21T06:37:58.541Z,86.70
2022-08-21T06:40:26.008Z,86.54
2022-08-21T06:42:52.797Z,86.23
2022-08-21T06:45:19.405Z,86.06
2022-08-21T06:47:46.025Z,86.42
2022-08-21T06:50:13.664Z,86.45
2022-08-21T06:52:40.760Z,86.07
2022-08-21T06:55:08.980Z,85.29
2022-08-21T06:57:35.822Z,84.80
2022-08-21T07:00:06.511Z,83.80
2022-08-21T07:02:34.630Z,83.09
2022-08-21T07:05:01.394Z,83.43
2022-08-21T07:07:28.044Z,83.15
2022-08-21T07:09:54.696Z,82.89
2022-08-21T07:12:21.329Z,82.51
2022-08-21T07:14:48.342Z,82.12
2022-08-21T07:17:15.020Z,81.87
2022-08-21T07:19:41.703Z,81.75
2022-08-21T07:22:08.340Z,81.48
2022-08-21T07:24:34.999Z,81.30
2022-08-21T07:27:01.643Z,81.72
2022-08-21T07:29:28.293Z,81.23
2022-08-21T07:31:54.917Z,80.91
2022-08-21T07:34:21.574Z,81.39
2022-08-21T07:36:48.276Z,81.11
2022-08-21T07:39:16.105Z,80.21
2022-08-21T07:41:42.736Z,79.73
2022-08-21T07:44:09.497Z,78.48
2022-08-21T07:46:39.373Z,78.01
2022-08-21T07:49:06.070Z,77.45
2022-08-21T07:51:32.763Z,76.79
2022-08-21T07:54:02.821Z,77.43
2022-08-21T07:56:29.513Z,76.84
2022-08-21T07:58:57.431Z,77.46
2022-08-21T08:01:24.700Z,77.88
2022-08-21T08:03:51.732Z,78.30
2022-08-21T08:06:19.722Z,78.31
2022-08-21T08:08:46.425Z,78.58
2022-08-21T08:11:13.404Z,78.22
2022-08-21T08:13:41.302Z,78.46
2022-08-21T08:16:08.115Z,79.00
2022-08-21T08:18:34.734Z,79.16
2022-08-21T08:21:01.394Z,79.25
2022-08-21T08:23:28.609Z,79.33
2022-08-21T08:26:11.057Z,79.20
2022-08-21T08:28:37.906Z,79.70
2022-08-21T08:31:05.001Z,79.64
2022-08-21T08:33:31.842Z,80.24
2022-08-21T08:36:01.358Z,80.10
2022-08-21T08:38:34.683Z,79.92
2022-08-21T08:41:15.310Z,80.15
2022-08-21T08:44:03.968Z,80.63
2022-08-21T08:47:23.164Z,80.80
2022-08-21T08:50:06.356Z,81.18
2022-08-21T08:53:06.237Z,80.71
2022-08-21T08:55:38.767Z,79.95
2022-08-21T08:58:05.391Z,79.97
2022-08-21T09:00:32.658Z,80.61
2022-08-21T09:03:01.242Z,80.82
2022-08-21T09:05:45.921Z,81.44
2022-08-21T09:08:18.931Z,81.24
2022-08-21T09:10:54.578Z,81.37
2022-08-21T09:13:37.906Z,81.07
2022-08-21T09:16:20.679Z,81.48
2022-08-21T09:19:00.445Z,81.22
2022-08-21T09:21:39.886Z,81.03
2022-08-21T09:24:43.556Z,81.00
2022-08-21T09:27:12.771Z,80.66
2022-08-21T09:29:41.517Z,80.65
2022-08-21T09:32:23.644Z,80.87
2022-08-21T09:35:23.741Z,81.44
2022-08-21T09:38:04.148Z,81.33
2022-08-21T09:40:36.981Z,81.30
2022-08-21T09:43:12.767Z,81.85
2022-08-21T09:45:40.267Z,82.31
2022-08-21T09:48:14.048Z,82.03
2022-08-21T09:50:41.228Z,82.12
2022-08-21T09:53:24.907Z,82.13
2022-08-21T09:56:15.870Z,82.58
2022-08-21T09:58:43.764Z,82.38
2022-08-21T10:01:18.564Z,82.46
2022-08-21T10:03:46.288Z,82.51
2022-08-21T10:06:25.839Z,82.59
2022-08-21T10:08:52.764Z,82.85
2022-08-21T10:11:19.926Z,83.50
2022-08-21T10:13:52.486Z,83.66
2022-08-21T10:16:24.973Z,83.75
2022-08-21T10:19:03.831Z,84.08
2022-08-21T10:21:36.481Z,83.57
2022-08-21T10:24:09.622Z,83.38
2022-08-21T10:26:48.840Z,83.56
2022-08-21T10:29:57.741Z,83.75
2022-08-21T10:32:45.621Z,83.44
2022-08-21T10:35:25.908Z,82.86
2022-08-21T10:37:58.641Z,81.99
2022-08-21T10:40:43.361Z,82.26
2022-08-21T10:43:11.027Z,82.32
2022-08-21T10:45:48.214Z,81.24
2022-08-21T10:48:38.725Z,80.44
2022-08-21T10:51:29.636Z,80.25
2022-08-21T10:53:56.315Z,79.77
2022-08-21T10:56:28.297Z,80.29
2022-08-21T10:59:04.253Z,79.58
2022-08-21T11:01:53.856Z,80.14
2022-08-21T11:04:20.487Z,79.34
2022-08-21T11:06:49.491Z,80.35
2022-08-21T11:09:18.623Z,78.67
2022-08-21T11:11:59.262Z,78.89
2022-08-21T11:14:43.244Z,79.17
2022-08-21T11:17:21.786Z,78.64
2022-08-21T11:19:59.603Z,78.28
2022-08-21T11:22:44.438Z,79.08
2022-08-21T11:25:17.110Z,79.39
2022-08-21T11:27:53.304Z,80.05
2022-08-21T11:30:24.867Z,79.83
2022-08-21T11:32:51.554Z,79.38
2022-08-21T11:35:39.924Z,79.07
2022-08-21T11:38:31.134Z,78.61
2022-08-21T11:41:35.418Z,78.75
2022-08-21T11:44:01.922Z,79.33
2022-08-21T11:47:01.931Z,79.81
2022-08-21T11:49:40.354Z,80.26
2022-08-21T11:52:18.602Z,80.80
2022-08-21T11:54:55.179Z,80.33
2022-08-21T11:57:27.049Z,79.95
2022-08-21T12:00:04.655Z,80.07
2022-08-21T12:02:35.264Z,80.85
2022-08-21T12:05:08.372Z,80.71
2022-08-21T12:07:43.552Z,81.26
2022-08-21T12:10:13.517Z,81.43
2022-08-21T12:12:41.374Z,80.58
2022-08-21T12:15:18.915Z,80.69
2022-08-21T12:17:54.706Z,81.49
2022-08-21T12:20:21.276Z,82.02
2022-08-21T12:22:54.417Z,82.53
2022-08-21T12:25:22.158Z,82.47
2022-08-21T12:27:51.719Z,83.22
2022-08-21T12:30:27.648Z,82.92
2022-08-21T12:33:29.683Z,83.26
2022-08-21T12:36:12.048Z,82.87
2022-08-21T12:39:09.713Z,81.83
2022-08-21T12:41:47.154Z,81.83
2022-08-21T12:44:27.630Z,82.14
2022-08-21T12:46:58.987Z,81.59
2022-08-21T12:49:30.096Z,82.24
2022-08-21T12:52:07.332Z,81.88
2022-08-21T12:54:40.318Z,82.27
2022-08-21T12:57:07.613Z,81.95
2022-08-21T12:59:37.775Z,81.62
2022-08-21T13:02:04.773Z,81.38
2022-08-21T13:04:39.992Z,81.64
2022-08-21T13:07:08.492Z,81.13
2022-08-21T13:09:35.184Z,81.26
2022-08-21T13:12:01.854Z,81.72
2022-08-21T13:14:45.107Z,81.52
2022-08-21T13:17:12.829Z,81.01
2022-08-21T13:19:39.669Z,81.20
2022-08-21T13:22:34.267Z,81.99
2022-08-21T13:25:00.013Z,82.33
2022-08-21T13:27:32.581Z,83.11
2022-08-21T13:30:23.114Z,83.17
2022-08-21T13:32:52.701Z,83.34
2022-08-21T13:35:35.929Z,84.07
2022-08-21T13:38:03.273Z,84.24
2022-08-21T13:40:33.046Z,84.06
2022-08-21T13:42:59.946Z,84.16
2022-08-21T13:45:36.792Z,83.79
2022-08-21T13:48:06.471Z,84.24
2022-08-21T13:50:41.816Z,84.36
2022-08-21T13:53:19.549Z,83.91
2022-08-21T13:55:46.230Z,84.00
2022-08-21T13:58:12.842Z,85.18
2022-08-21T14:01:00.099Z,85.73
2022-08-21T14:03:42.998Z,85.37
2022-08-21T14:06:14.793Z,85.15
2022-08-21T14:08:42.274Z,84.95
2022-08-21T14:11:12.094Z,84.82
2022-08-21T14:13:38.724Z,85.02
2022-08-21T14:16:12.053Z,85.59
2022-08-21T14:18:53.955Z,85.60
2022-08-21T14:21:37.993Z,85.31
2022-08-21T14:24:14.773Z,85.02
2022-08-21T14:26:53.267Z,84.42
2022-08-21T14:29:20.621Z,85.07
2022-08-21T14:31:54.945Z,85.33
2022-08-21T14:34:21.961Z,85.12
2022-08-21T14:36:49.364Z,85.24
2022-08-21T14:39:16.084Z,85.15
2022-08-21T14:41:44.010Z,85.27
2022-08-21T14:44:10.651Z,85.15
2022-08-21T14:46:45.855Z,85.00
2022-08-21T14:49:24.015Z,86.00
2022-08-21T14:51:56.394Z,86.30
2022-08-21T14:54:31.086Z,85.98
2022-08-21T14:57:09.741Z,85.76
2022-08-21T14:59:36.678Z,85.77
2022-08-21T15:02:05.241Z,85.84
2022-08-21T15:04:32.136Z,85.63
2022-08-21T15:06:58.878Z,85.46
2022-08-21T15:09:25.506Z,85.24
2022-08-21T15:11:57.472Z,84.95
2022-08-21T15:14:29.845Z,84.47
2022-08-21T15:16:56.562Z,84.29
2022-08-21T15:19:23.253Z,84.45
2022-08-21T15:21:49.925Z,84.60
2022-08-21T15:24:16.898Z,84.45
2022-08-21T15:26:43.779Z,84.88
2022-08-21T15:29:10.647Z,84.89
2022-08-21T15:31:37.460Z,84.60
2022-08-21T15:34:04.120Z,85.03
2022-08-21T15:36:30.754Z,85.41
2022-08-21T15:38:57.371Z,85.00
2022-08-21T15:41:24.081Z,84.75
2022-08-21T15:43:51.826Z,85.04
2022-08-21T15:46:19.119Z,84.97
2022-08-21T15:48:47.186Z,85.02
2022-08-21T15:51:14.172Z,84.41
2022-08-21T15:53:41.329Z,84.64
2022-08-21T15:56:15.530Z,85.31
2022-08-21T15:58:42.114Z,84.92
2022-08-21T16:01:08.835Z,85.27
2022-08-21T16:03:35.553Z,84.92
2022-08-21T16:06:02.173Z,85.48
2022-08-21T16:08:29.016Z,85.38
2022-08-21T16:10:55.640Z,85.44
2022-08-21T16:13:25.862Z,85.32
2022-08-21T16:15:52.604Z,85.62
2022-08-21T16:18:19.571Z,85.09
2022-08-21T16:20:46.244Z,85.20
2022-08-21T16:23:13.000Z,85.43
2022-08-21T16:25:40.035Z,85.31
2022-08-21T16:28:08.566Z,85.49
2022-08-21T16:30:37.087Z,85.81
2022-08-21T16:33:04.274Z,85.53
2022-08-21T16:35:31.450Z,85.88
2022-08-21T16:37:58.339Z,86.16
2022-08-21T16:40:27.266Z,85.67
2022-08-21T16:42:54.036Z,85.95
2022-08-21T16:45:21.459Z,85.80
2022-08-21T16:47:48.150Z,85.84
2022-08-21T16:50:17.490Z,86.10
2022-08-21T16:53:02.014Z,86.20
2022-08-21T16:55:35.891Z,86.03
2022-08-21T16:58:04.335Z,86.35
2022-08-21T17:00:31.009Z,86.41
2022-08-21T17:02:57.826Z,86.43
2022-08-21T17:05:24.634Z,85.95
2022-08-21T17:07:51.310Z,86.51
2022-08-21T17:10:19.216Z,86.40
2022-08-21T17:12:57.636Z,86.77
2022-08-21T17:15:27.810Z,87.02
2022-08-21T17:17:56.427Z,87.11
2022-08-21T17:20:23.206Z,87.06
2022-08-21T17:22:50.057Z,87.20
2022-08-21T17:25:16.853Z,86.75
2022-08-21T17:27:44.236Z,86.47
2022-08-21T17:30:11.686Z,86.92
2022-08-21T17:32:38.405Z,87.06
2022-08-21T17:35:05.701Z,87.17
2022-08-21T17:37:32.464Z,87.33
2022-08-21T17:39:59.559Z,87.21
2022-08-21T17:42:27.325Z,87.52
2022-08-21T17:44:56.405Z,87.68
2022-08-21T17:47:23.312Z,87.83
2022-08-21T17:49:49.949Z,87.82
2022-08-21T17:52:16.544Z,87.72
2022-08-21T17:54:43.245Z,87.98
2022-08-21T17:57:22.762Z,88.04
2022-08-21T17:59:49.628Z,88.45
2022-08-21T18:02:20.090Z,88.20
2022-08-21T18:04:47.109Z,88.24
2022-08-21T18:07:32.081Z,88.22
2022-08-21T18:10:01.211Z,88.39
2022-08-21T18:12:28.584Z,88.51
2022-08-21T18:14:55.262Z,88.66
2022-08-21T18:17:22.400Z,88.74
2022-08-21T18:19:49.466Z,88.65
2022-08-21T18:22:16.360Z,88.79
2022-08-21T18:24:43.910Z,88.69
2022-08-21T18:27:10.649Z,89.12
2022-08-21T18:29:43.751Z,89.30
2022-08-21T18:32:29.671Z,89.25
2022-08-21T18:34:59.143Z,89.33
2022-08-21T18:37:25.884Z,89.08
2022-08-21T18:39:52.659Z,89.20
2022-08-21T18:42:19.360Z,89.43
2022-08-21T18:44:50.518Z,89.33
2022-08-21T18:47:23.365Z,89.71
2022-08-21T18:49:50.219Z,89.65
2022-08-21T18:52:20.375Z,89.49
2022-08-21T18:54:49.546Z,89.67
2022-08-21T18:57:16.546Z,89.86
2022-08-21T18:59:45.661Z,89.65
2022-08-21T19:02:12.649Z,89.97
2022-08-21T19:04:44.726Z,89.83
2022-08-21T19:07:13.951Z,90.00
2022-08-21T19:09:41.693Z,89.86
2022-08-21T19:12:12.695Z,90.18
2022-08-21T19:14:41.115Z,89.99
2022-08-21T19:17:08.401Z,89.86
2022-08-21T19:19:36.279Z,90.09
2022-08-21T19:22:06.150Z,90.17
2022-08-21T19:24:39.103Z,90.28
2022-08-21T19:27:05.851Z,90.20
2022-08-21T19:29:35.058Z,90.36
2022-08-21T19:32:04.234Z,90.63
2022-08-21T19:34:31.125Z,90.07
2022-08-21T19:36:58.188Z,90.13
2022-08-21T19:39:24.901Z,90.63
2022-08-21T19:41:56.385Z,90.57
2022-08-21T19:44:26.105Z,90.12
2022-08-21T19:46:53.105Z,90.13
2022-08-21T19:49:22.136Z,90.46
2022-08-21T19:51:49.018Z,90.29
2022-08-21T19:54:27.038Z,90.33
2022-08-21T19:56:55.159Z,90.37
2022-08-21T19:59:24.669Z,90.16
2022-08-21T20:01:51.763Z,90.31
2022-08-21T20:04:19.392Z,90.09
2022-08-21T20:06:46.461Z,90.13
2022-08-21T20:09:23.110Z,89.76
2022-08-21T20:11:57.751Z,90.18
2022-08-21T20:14:31.516Z,90.08
2022-08-21T20:17:00.923Z,90.02
2022-08-21T20:19:45.207Z,89.92
2022-08-21T20:22:12.277Z,89.79
2022-08-21T20:24:39.712Z,89.95
2022-08-21T20:27:08.231Z,89.87
2022-08-21T20:29:39.222Z,89.71
2022-08-21T20:32:08.009Z,89.81
2022-08-21T20:34:39.274Z,90.18
2022-08-21T20:37:06.177Z,90.03
2022-08-21T20:39:32.953Z,90.24
2022-08-21T20:41:59.916Z,89.82
2022-08-21T20:44:29.582Z,89.67
2022-08-21T20:46:57.882Z,89.78
2022-08-21T20:49:27.172Z,89.71
2022-08-21T20:51:54.202Z,89.99
2022-08-21T20:54:25.934Z,90.11
2022-08-21T20:57:13.640Z,89.41
2022-08-21T21:00:01.799Z,89.50
2022-08-21T21:02:56.218Z,89.48
2022-08-21T21:05:22.827Z,89.15
2022-08-21T21:08:14.752Z,89.83
2022-08-21T21:10:56.754Z,89.43
2022-08-21T21:13:34.572Z,89.49
2022-08-21T21:16:12.802Z,89.73
2022-08-21T21:18:41.506Z,90.21
2022-08-21T21:21:18.515Z,90.37
2022-08-21T21:23:46.945Z,90.07
2022-08-21T21:26:36.621Z,90.03
2022-08-21T21:29:10.636Z,90.56
2022-08-21T21:31:37.502Z,90.12
2022-08-21T21:34:04.142Z,90.36
2022-08-21T21:36:43.866Z,90.67
2022-08-21T21:39:36.073Z,90.57
2022-08-21T21:42:37.269Z,90.33
2022-08-21T21:45:09.511Z,90.58
2022-08-21T21:48:03.719Z,90.50
2022-08-21T21:50:49.806Z,90.57
2022-08-21T21:53:35.631Z,90.52
2022-08-21T21:56:27.512Z,90.44
2022-08-21T21:59:17.599Z,90.69
2022-08-21T22:02:24.193Z,91.01
2022-08-21T22:05:18.349Z,91.13
2022-08-21T22:07:52.469Z,91.18
2022-08-21T22:10:54.143Z,91.52
2022-08-21T22:13:26.641Z,91.41
2022-08-21T22:15:54.491Z,90.96
2022-08-21T22:18:23.397Z,91.05
2022-08-21T22:21:09.922Z,90.87
2022-08-21T22:23:40.185Z,90.48
2022-08-21T22:26:15.078Z,90.42
2022-08-21T22:28:43.091Z,90.44
2022-08-21T22:31:18.850Z,90.96
2022-08-21T22:34:06.543Z,90.89
2022-08-21T22:36:50.187Z,90.81
2022-08-21T22:39:38.607Z,91.14
2022-08-21T22:42:20.849Z,90.91
2022-08-21T22:44:58.218Z,91.22
2022-08-21T22:47:43.426Z,91.22
2022-08-21T22:50:25.628Z,91.26
2022-08-21T22:53:00.541Z,90.90
2022-08-21T22:55:38.843Z,90.41
2022-08-21T22:58:10.290Z,90.40
2022-08-21T23:00:48.752Z,90.62
2022-08-21T23:03:44.782Z,90.74
2022-08-21T23:06:35.015Z,90.30
2022-08-21T23:09:01.803Z,90.39
2022-08-21T23:11:39.935Z,90.26
2022-08-21T23:14:06.845Z,90.54
2022-08-21T23:16:47.234Z,90.49
2022-08-21T23:19:17.515Z,90.64
2022-08-21T23:21:47.185Z,90.33
2022-08-21T23:24:32.072Z,90.63
2022-08-21T23:27:23.585Z,90.22
2022-08-21T23:30:12.432Z,90.01
2022-08-21T23:33:04.489Z,90.34
2022-08-21T23:36:06.554Z,89.98
2022-08-21T23:38:34.875Z,90.43
2022-08-21T23:41:35.869Z,90.66
2022-08-21T23:44:30.229Z,91.18
2022-08-21T23:47:06.884Z,91.28
2022-08-21T23:49:44.139Z,91.56
2022-08-21T23:52:44.085Z,91.73
2022-08-21T23:55:21.043Z,91.59
2022-08-21T23:58:00.624Z,91.90
